Alpine, WY

8:01 PM MST on February 13, 2016 (GMT -0700)
One Mile South of | | Change Station
CLOSE
Current Station
Personal Weather Station
Location: Alpine, WY
Elevation: 5650 ft
Nearby Weather Stations
Active Advisory: Winter Weather Advisory Active Notice: Public Information Statement

Elev 5650 ft 43.16 °N, 111.03 °W | Updated 2 seconds ago

Mostly Cloudy
Mostly Cloudy
31.6 °F
Feels Like 32 °F
N
3.0
Wind Variable Wind from North
Gusts 3.0 mph

Today
High -- | Low -- °F
--% Chance of Precip.
Yesterday
High -- | Low -- °F
Precip. -- in
Pressure 30.25 in
Visibility 10.0 miles
Clouds Scattered Clouds 12000 ft
Windchill 32 °F
Dew Point 23 °F
Humidity 70%
Rainfall 0.00 in
Snow Depth Not available.
7:25 AM 5:52 PM
Waxing Crescent, 37% visible
METAR KAFO 140255Z AUTO 00000KT 10SM SCT120 M01/M06 A3025 RMK AO2
Pressure 30.25 in
Visibility 10.0 miles
Clouds Scattered Clouds 12000 ft
Windchill 32 °F
Dew Point 23 °F
Humidity 70%
Rainfall 0.00 in
Snow Depth Not available.
7:25 AM 5:52 PM
Waxing Crescent, 37% visible
METAR KAFO 140255Z AUTO 00000KT 10SM SCT120 M01/M06 A3025 RMK AO2

10-Day Weather Forecast

Almanac

Astronomy

Feb. 13, 2016 Rise Set
Actual Time
Civil Twilight
Nautical Twilight
Astronomical Twilight
Moon
Length of Visible Light
Length of Day
Tomorrow will be .
, % of the Moon is Illuminated

Today's Extremes

State Highs State Lows

Community

WunderPhotos

Upload Photos

1,892,731 photos uploaded!

WunderBlog® & News

Nearby

Air Quality

  Air Quality AQ Index Pollutant
Not available.

Snow Depth

Station Depth Elevation

Earthquake Activity

City Distance Mag. Time & Date
Minimum magnitude displayed is 2.5.

Coastal Water Temperatures

Place Temperature

Stations

Nearby Weather Stations

Station Location Temp. Windchill Dew Point Humidity Wind Precip. Elev Updated Type
                   

Watches & Warnings

Winter Weather Advisory
Issued: 11:51 AM MST Feb. 13, 2016 – National Weather Service

... Winter Weather Advisory in effect from 5 am Sunday to 5 PM MST
Monday...

The National Weather Service in Riverton has issued a Winter
Weather Advisory for snow and blowing snow... which is in effect
from 5 am Sunday to 5 PM MST Monday.

* Timing... strong west winds will begin to bring Pacific moisture
into the Star Valley and Jackson Hole late tonight beginning a
long term period of snow with blowing snow developing. Periods
of snow and blowing snow will continue Sunday night and Monday.

* Snow accumulation... 3 to 6 inches with locally higher amounts.

* Wind and visibility... west winds 15 to 25 mph with gusts to 30
mph on open areas. Visibility below a quarter mile in heavy
snow and blowing snow.

* Main impact... travel will become difficult with snow packed and
icy roads and poor visibility.

Precautionary/preparedness actions...

A Winter Weather Advisory for snow and blowing snow means that
visibilities will be limited due to strong winds blowing snow
around. Use caution when traveling... especially in open areas.